Regional Weather

 

KCRX - Corinth, Mississippi, USA
Distance from station: SW 29mi, 47km
Updated: Sun, 18-Nov-2018 4:55pm CST
Clear
Clear
 Wind from S
Wind: S 6 mph , 9 km/h
Temperature: 61°F , 16°C
Dew Point: 45°F , 7°C
Humidity: 55%
Barometer: 30.14 inHg , 1020.7 hPa
Clouds: Clear
Visibility: 10 miles , 16 km
2018/11/18 22:55 KCRX 182255Z AUTO 19005KT 10SM CLR 16/07 A3014 RMK AO2
KMKL - Jackson, Tennessee, USA
Distance from station: NW 46mi, 73km
Updated: Sun, 18-Nov-2018 4:53pm CST
Overcast
Overcast
 Wind from N
Wind: N 6 mph , 9 km/h
Temperature: 57°F , 14°C
Dew Point: 48°F , 9°C
Humidity: 72%
Barometer: 30.14 inHg , 1020.7 hPa
Clouds: Overcast
Visibility: 10 miles , 16 km
Cloud details: Overcast 10000 ft
2018/11/18 22:53 KMKL 182253Z 35005KT 10SM OVC100 14/09 A3014 RMK AO2 SLP206 T01390089
 
KMSL - Muscle Shoal, Alabama, USA
Distance from station: SE 49mi, 79km
Updated: Sun, 18-Nov-2018 4:53pm CST
Clear
Clear
 Wind from calm
Wind: Calm
Temperature: 59°F , 15°C
Dew Point: 45°F , 7°C
Humidity: 59%
Barometer: 30.17 inHg , 1021.7 hPa
Clouds: Clear
Visibility: 10 miles , 16 km
2018/11/18 22:53 KMSL 182253Z AUTO 00000KT 10SM CLR 15/07 A3017 RMK AO2 SLP214 T01500067 $
KTUP - Tupelo, Mississippi, USA
Distance from station: SSW 72mi, 117km
Updated: Sun, 18-Nov-2018 4:53pm CST
Clear
Clear
 Wind from calm
Wind: Calm
Temperature: 57°F , 14°C
Dew Point: 45°F , 7°C
Humidity: 63%
Barometer: 30.15 inHg , 1021 hPa
Clouds: Clear
Visibility: 10 miles , 16 km
2018/11/18 22:53 KTUP 182253Z 00000KT 10SM CLR 14/07 A3015 RMK AO2 SLP208 T01390072
 
KHSV - Huntsville, Alabama, USA
Distance from station: ESE 92mi, 148km
Updated: Sun, 18-Nov-2018 4:53pm CST
Partly cloudy
Partly cloudy
 Wind from NNE
Wind: NNE 3 mph , 6 km/h
Temperature: 57°F , 14°C
Dew Point: 45°F , 7°C
Humidity: 63%
Barometer: 30.16 inHg , 1021.3 hPa
Clouds: Partly cloudy
Visibility: 10 miles , 16 km
Cloud details: Partly cloudy 25000 ft
2018/11/18 22:53 KHSV 182253Z 03003KT 10SM SCT250 14/07 A3016 RMK AO2 SLP213 T01440067
KBNA - Nashville, TN, USA
Distance from station: NE 97mi, 157km
Updated: Sun, 18-Nov-2018 4:53pm CST
Mostly cloudy
Mostly cloudy
 Wind from SW
Wind: SW 5 mph , 7 km/h
Temperature: 61°F , 16°C
Dew Point: 39°F , 4°C
Humidity: 45%
Barometer: 30.15 inHg , 1021 hPa
Clouds: Mostly cloudy
Visibility: 10 miles , 16 km
Cloud details: Partly cloudy 6000 ft
Mostly cloudy 22000 ft
Mostly cloudy 25000 ft
2018/11/18 22:53 KBNA 182253Z 22004KT 10SM SCT060 BKN220 BKN250 16/04 A3015 RMK AO2 SLP210 T01560039
 
KMEM - Memphis, Tennessee, USA
Distance from station: W 99mi, 159km
Updated: Sun, 18-Nov-2018 4:54pm CST
Mostly cloudy
Mostly cloudy
 Wind from S
Wind: S 7 mph , 11 km/h
Temperature: 61°F , 16°C
Dew Point: 52°F , 11°C
Humidity: 72%
Barometer: 30.13 inHg , 1020.3 hPa
Clouds: Mostly cloudy
Visibility: 10 miles , 16 km
Cloud details: Partly cloudy 7500 ft
Mostly cloudy 10000 ft
Mostly cloudy 25000 ft
2018/11/18 22:54 KMEM 182254Z 17006KT 10SM SCT075 BKN100 BKN250 16/11 A3013 RMK AO2 SLP201 T01610106
KCKV - Clarksville, TN, USA
Distance from station: NNE 99mi, 159km
Updated: Sun, 18-Nov-2018 4:52pm CST
Clear
Clear
 Wind from NNW
Wind: NNW 5 mph , 7 km/h
Temperature: 52°F , 11°C
Dew Point: 43°F , 6°C
Humidity: 72%
Barometer: 30.14 inHg , 1020.7 hPa
Clouds: Clear
Visibility: 10 miles , 16 km
2018/11/18 22:52 KCKV 182252Z AUTO 33004KT 10SM CLR 11/06 A3014 RMK AO2 SLP209 T01110061
 
KCHA - Chattanooga, TN, USA
Distance from station: E 165mi, 265km
Updated: Sun, 18-Nov-2018 4:53pm CST
Partly cloudy
Partly cloudy
 Wind from calm
Wind: Calm
Temperature: 54°F , 12°C
Dew Point: 45°F , 7°C
Humidity: 72%
Barometer: 30.17 inHg , 1021.7 hPa
Clouds: Partly cloudy
Visibility: 10 miles , 16 km
Cloud details: Few Clouds 5000 ft
Partly cloudy 20000 ft
Partly cloudy 25000 ft
2018/11/18 22:53 KCHA 182253Z 00000KT 10SM FEW050 SCT200 SCT250 12/07 A3017 RMK AO2 SLP217 T01220067
KTYS - Knoxville, TN, USA
Distance from station: E 234mi, 377km
Updated: Sun, 18-Nov-2018 4:53pm CST
Few Clouds
Few Clouds
 Wind from calm
Wind: Calm
Temperature: 54°F , 12°C
Dew Point: 43°F , 6°C
Humidity: 67%
Barometer: 30.16 inHg , 1021.3 hPa
Clouds: Few Clouds
Visibility: 10 miles , 16 km
Cloud details: Few Clouds 20000 ft
2018/11/18 22:53 KTYS 182253Z 00000KT 10SM FEW200 12/06 A3016 RMK AO2 SLP215 T01220061

Refresh Page for latest data.